sensor_id;sensor_type;location;lat;lon;timestamp;P1;durP1;ratioP1;P2;durP2;ratioP2
950;SDS011;462;48.758;9.256;2022-09-09T00:05:42;2.90;;;1.90;;
950;SDS011;462;48.758;9.256;2022-09-09T00:13:51;3.90;;;2.43;;
950;SDS011;462;48.758;9.256;2022-09-09T00:21:57;5.40;;;2.23;;
950;SDS011;462;48.758;9.256;2022-09-09T00:30:14;5.50;;;2.10;;
950;SDS011;462;48.758;9.256;2022-09-09T00:38:21;4.23;;;2.53;;
950;SDS011;462;48.758;9.256;2022-09-09T00:54:52;2.50;;;1.80;;
950;SDS011;462;48.758;9.256;2022-09-09T01:03:03;1.80;;;1.57;;
950;SDS011;462;48.758;9.256;2022-09-09T01:11:21;4.30;;;1.87;;
950;SDS011;462;48.758;9.256;2022-09-09T01:19:32;5.53;;;3.00;;
950;SDS011;462;48.758;9.256;2022-09-09T01:27:42;4.40;;;3.07;;
950;SDS011;462;48.758;9.256;2022-09-09T01:35:47;3.97;;;2.57;;
950;SDS011;462;48.758;9.256;2022-09-09T01:43:57;5.00;;;2.00;;
950;SDS011;462;48.758;9.256;2022-09-09T01:52:01;3.20;;;2.63;;
950;SDS011;462;48.758;9.256;2022-09-09T02:00:12;6.13;;;2.83;;
950;SDS011;462;48.758;9.256;2022-09-09T02:08:17;3.70;;;2.30;;
950;SDS011;462;48.758;9.256;2022-09-09T02:16:33;8.80;;;2.80;;
950;SDS011;462;48.758;9.256;2022-09-09T02:24:39;3.70;;;2.97;;
950;SDS011;462;48.758;9.256;2022-09-09T02:32:52;5.97;;;2.77;;
950;SDS011;462;48.758;9.256;2022-09-09T02:40:58;5.73;;;2.77;;
950;SDS011;462;48.758;9.256;2022-09-09T02:49:05;6.83;;;3.13;;
950;SDS011;462;48.758;9.256;2022-09-09T02:57:13;2.90;;;2.20;;
950;SDS011;462;48.758;9.256;2022-09-09T03:05:23;4.07;;;2.13;;
950;SDS011;462;48.758;9.256;2022-09-09T03:13:27;6.87;;;2.87;;
950;SDS011;462;48.758;9.256;2022-09-09T03:21:31;7.10;;;2.77;;
950;SDS011;462;48.758;9.256;2022-09-09T03:29:33;7.33;;;3.40;;
950;SDS011;462;48.758;9.256;2022-09-09T03:37:40;4.33;;;3.60;;
950;SDS011;462;48.758;9.256;2022-09-09T03:45:45;7.53;;;4.13;;
950;SDS011;462;48.758;9.256;2022-09-09T03:53:50;5.40;;;3.17;;
950;SDS011;462;48.758;9.256;2022-09-09T04:01:54;4.00;;;2.90;;
950;SDS011;462;48.758;9.256;2022-09-09T04:10:00;7.07;;;3.17;;
950;SDS011;462;48.758;9.256;2022-09-09T04:18:05;5.37;;;2.70;;
950;SDS011;462;48.758;9.256;2022-09-09T04:26:09;4.50;;;3.20;;
950;SDS011;462;48.758;9.256;2022-09-09T04:34:12;5.70;;;2.70;;
950;SDS011;462;48.758;9.256;2022-09-09T04:42:16;4.20;;;2.53;;
950;SDS011;462;48.758;9.256;2022-09-09T04:50:21;3.10;;;2.73;;
950;SDS011;462;48.758;9.256;2022-09-09T04:58:33;3.67;;;2.80;;
950;SDS011;462;48.758;9.256;2022-09-09T05:06:36;3.30;;;2.60;;
950;SDS011;462;48.758;9.256;2022-09-09T05:14:40;6.47;;;4.90;;
950;SDS011;462;48.758;9.256;2022-09-09T05:22:43;4.50;;;2.50;;
950;SDS011;462;48.758;9.256;2022-09-09T05:30:47;6.73;;;3.10;;
950;SDS011;462;48.758;9.256;2022-09-09T05:39:02;8.50;;;2.90;;
950;SDS011;462;48.758;9.256;2022-09-09T05:47:08;4.67;;;1.83;;
950;SDS011;462;48.758;9.256;2022-09-09T05:55:10;6.17;;;3.30;;
950;SDS011;462;48.758;9.256;2022-09-09T06:03:14;7.80;;;2.70;;
950;SDS011;462;48.758;9.256;2022-09-09T06:11:18;5.53;;;2.40;;
950;SDS011;462;48.758;9.256;2022-09-09T06:19:23;7.20;;;3.30;;
950;SDS011;462;48.758;9.256;2022-09-09T06:27:28;6.23;;;2.00;;
950;SDS011;462;48.758;9.256;2022-09-09T06:35:33;3.30;;;2.33;;
950;SDS011;462;48.758;9.256;2022-09-09T06:43:35;6.50;;;2.50;;
950;SDS011;462;48.758;9.256;2022-09-09T06:51:39;7.30;;;2.57;;
950;SDS011;462;48.758;9.256;2022-09-09T06:59:43;6.20;;;2.50;;
950;SDS011;462;48.758;9.256;2022-09-09T07:07:47;5.77;;;2.50;;
950;SDS011;462;48.758;9.256;2022-09-09T07:15:53;9.93;;;4.90;;
950;SDS011;462;48.758;9.256;2022-09-09T07:23:57;4.03;;;1.93;;
950;SDS011;462;48.758;9.256;2022-09-09T07:32:00;5.60;;;2.60;;
950;SDS011;462;48.758;9.256;2022-09-09T07:40:09;9.00;;;3.00;;
950;SDS011;462;48.758;9.256;2022-09-09T07:48:12;6.90;;;2.60;;
950;SDS011;462;48.758;9.256;2022-09-09T07:56:16;5.63;;;2.53;;
950;SDS011;462;48.758;9.256;2022-09-09T08:04:23;4.07;;;2.33;;
950;SDS011;462;48.758;9.256;2022-09-09T08:12:28;5.17;;;2.20;;
950;SDS011;462;48.758;9.256;2022-09-09T08:20:31;3.30;;;1.20;;
950;SDS011;462;48.758;9.256;2022-09-09T08:28:36;4.67;;;1.30;;
950;SDS011;462;48.758;9.256;2022-09-09T08:36:40;4.43;;;1.77;;
950;SDS011;462;48.758;9.256;2022-09-09T08:44:49;3.00;;;1.00;;
950;SDS011;462;48.758;9.256;2022-09-09T08:53:11;3.33;;;1.40;;
950;SDS011;462;48.758;9.256;2022-09-09T09:01:29;4.07;;;1.30;;
950;SDS011;462;48.758;9.256;2022-09-09T09:09:57;2.20;;;1.30;;
950;SDS011;462;48.758;9.256;2022-09-09T09:18:11;5.17;;;1.03;;
950;SDS011;462;48.758;9.256;2022-09-09T09:26:16;3.47;;;1.60;;
950;SDS011;462;48.758;9.256;2022-09-09T09:34:21;3.27;;;1.50;;
950;SDS011;462;48.758;9.256;2022-09-09T09:42:25;2.40;;;1.30;;
950;SDS011;462;48.758;9.256;2022-09-09T09:50:32;3.90;;;1.63;;
950;SDS011;462;48.758;9.256;2022-09-09T09:58:37;0.97;;;0.90;;
950;SDS011;462;48.758;9.256;2022-09-09T10:06:54;2.30;;;0.87;;
950;SDS011;462;48.758;9.256;2022-09-09T10:14:58;1.27;;;0.90;;
950;SDS011;462;48.758;9.256;2022-09-09T10:23:06;2.40;;;1.07;;
950;SDS011;462;48.758;9.256;2022-09-09T10:31:21;1.70;;;0.77;;
950;SDS011;462;48.758;9.256;2022-09-09T10:39:31;2.80;;;1.20;;
950;SDS011;462;48.758;9.256;2022-09-09T10:47:43;1.80;;;1.10;;
950;SDS011;462;48.758;9.256;2022-09-09T10:56:08;5.77;;;1.47;;
950;SDS011;462;48.758;9.256;2022-09-09T11:04:13;3.00;;;1.27;;
950;SDS011;462;48.758;9.256;2022-09-09T11:12:20;3.33;;;1.53;;
950;SDS011;462;48.758;9.256;2022-09-09T11:20:23;2.93;;;1.20;;
950;SDS011;462;48.758;9.256;2022-09-09T11:28:35;4.43;;;1.30;;
950;SDS011;462;48.758;9.256;2022-09-09T11:36:49;1.37;;;1.27;;
950;SDS011;462;48.758;9.256;2022-09-09T11:45:09;3.27;;;1.07;;
950;SDS011;462;48.758;9.256;2022-09-09T11:53:19;1.67;;;0.97;;
950;SDS011;462;48.758;9.256;2022-09-09T12:01:29;1.10;;;0.80;;
950;SDS011;462;48.758;9.256;2022-09-09T12:09:43;0.63;;;0.50;;
950;SDS011;462;48.758;9.256;2022-09-09T12:17:49;0.90;;;0.50;;
950;SDS011;462;48.758;9.256;2022-09-09T12:25:56;2.70;;;1.40;;
950;SDS011;462;48.758;9.256;2022-09-09T12:34:10;1.87;;;0.60;;
950;SDS011;462;48.758;9.256;2022-09-09T12:42:16;0.50;;;0.40;;
950;SDS011;462;48.758;9.256;2022-09-09T12:50:22;1.67;;;0.50;;
950;SDS011;462;48.758;9.256;2022-09-09T12:58:25;1.57;;;1.00;;
950;SDS011;462;48.758;9.256;2022-09-09T13:06:34;0.70;;;0.50;;
950;SDS011;462;48.758;9.256;2022-09-09T13:14:36;2.00;;;1.00;;
950;SDS011;462;48.758;9.256;2022-09-09T13:22:40;2.70;;;0.90;;
950;SDS011;462;48.758;9.256;2022-09-09T13:30:42;1.33;;;0.60;;
950;SDS011;462;48.758;9.256;2022-09-09T13:38:54;3.13;;;1.07;;
950;SDS011;462;48.758;9.256;2022-09-09T13:47:00;1.27;;;0.97;;
950;SDS011;462;48.758;9.256;2022-09-09T13:55:05;1.33;;;0.70;;
950;SDS011;462;48.758;9.256;2022-09-09T14:03:10;2.00;;;0.80;;
950;SDS011;462;48.758;9.256;2022-09-09T14:11:14;0.90;;;0.50;;
950;SDS011;462;48.758;9.256;2022-09-09T14:19:16;3.90;;;0.97;;
950;SDS011;462;48.758;9.256;2022-09-09T14:27:20;2.83;;;0.80;;
950;SDS011;462;48.758;9.256;2022-09-09T14:35:22;1.50;;;0.70;;
950;SDS011;462;48.758;9.256;2022-09-09T14:43:26;1.30;;;0.50;;
950;SDS011;462;48.758;9.256;2022-09-09T14:51:30;1.07;;;0.60;;
950;SDS011;462;48.758;9.256;2022-09-09T14:59:33;1.97;;;0.70;;
950;SDS011;462;48.758;9.256;2022-09-09T15:07:36;1.50;;;0.60;;
950;SDS011;462;48.758;9.256;2022-09-09T15:15:40;1.07;;;0.40;;
950;SDS011;462;48.758;9.256;2022-09-09T15:23:42;1.60;;;0.60;;
950;SDS011;462;48.758;9.256;2022-09-09T15:31:46;4.00;;;0.80;;
950;SDS011;462;48.758;9.256;2022-09-09T15:39:49;1.40;;;0.70;;
950;SDS011;462;48.758;9.256;2022-09-09T15:47:53;2.50;;;1.13;;
950;SDS011;462;48.758;9.256;2022-09-09T15:55:55;1.93;;;0.83;;
950;SDS011;462;48.758;9.256;2022-09-09T16:03:59;3.23;;;1.00;;
950;SDS011;462;48.758;9.256;2022-09-09T16:12:02;3.60;;;0.80;;
950;SDS011;462;48.758;9.256;2022-09-09T16:20:11;4.33;;;0.90;;
950;SDS011;462;48.758;9.256;2022-09-09T16:28:14;0.80;;;0.60;;
950;SDS011;462;48.758;9.256;2022-09-09T16:36:18;2.33;;;1.10;;
950;SDS011;462;48.758;9.256;2022-09-09T16:44:23;2.73;;;1.00;;
950;SDS011;462;48.758;9.256;2022-09-09T16:52:27;2.53;;;1.30;;
950;SDS011;462;48.758;9.256;2022-09-09T17:00:30;1.50;;;0.87;;
950;SDS011;462;48.758;9.256;2022-09-09T17:08:33;0.83;;;0.60;;
950;SDS011;462;48.758;9.256;2022-09-09T17:16:36;1.17;;;0.50;;
950;SDS011;462;48.758;9.256;2022-09-09T17:24:41;0.90;;;0.60;;
950;SDS011;462;48.758;9.256;2022-09-09T17:32:43;0.70;;;0.60;;
950;SDS011;462;48.758;9.256;2022-09-09T17:40:48;5.30;;;1.17;;
950;SDS011;462;48.758;9.256;2022-09-09T17:48:51;1.40;;;0.90;;
950;SDS011;462;48.758;9.256;2022-09-09T17:56:58;4.83;;;1.60;;
950;SDS011;462;48.758;9.256;2022-09-09T18:05:01;1.53;;;1.20;;
950;SDS011;462;48.758;9.256;2022-09-09T18:13:04;2.03;;;1.17;;
950;SDS011;462;48.758;9.256;2022-09-09T18:21:09;1.80;;;1.10;;
950;SDS011;462;48.758;9.256;2022-09-09T18:29:14;0.97;;;0.77;;
950;SDS011;462;48.758;9.256;2022-09-09T18:37:19;1.80;;;0.90;;
950;SDS011;462;48.758;9.256;2022-09-09T18:45:22;3.97;;;1.43;;
950;SDS011;462;48.758;9.256;2022-09-09T18:53:25;2.30;;;1.00;;
950;SDS011;462;48.758;9.256;2022-09-09T19:01:29;9.63;;;1.80;;
950;SDS011;462;48.758;9.256;2022-09-09T19:09:32;1.37;;;1.20;;
950;SDS011;462;48.758;9.256;2022-09-09T19:17:36;2.87;;;1.23;;
950;SDS011;462;48.758;9.256;2022-09-09T19:25:39;1.73;;;0.97;;
950;SDS011;462;48.758;9.256;2022-09-09T19:33:43;2.13;;;1.20;;
950;SDS011;462;48.758;9.256;2022-09-09T19:41:46;4.47;;;1.23;;
950;SDS011;462;48.758;9.256;2022-09-09T19:49:50;4.77;;;1.90;;
950;SDS011;462;48.758;9.256;2022-09-09T19:57:52;2.53;;;1.40;;
950;SDS011;462;48.758;9.256;2022-09-09T20:05:56;2.63;;;1.20;;
950;SDS011;462;48.758;9.256;2022-09-09T20:13:59;2.70;;;1.70;;
950;SDS011;462;48.758;9.256;2022-09-09T20:22:03;2.33;;;1.00;;
950;SDS011;462;48.758;9.256;2022-09-09T20:30:06;2.57;;;1.40;;
950;SDS011;462;48.758;9.256;2022-09-09T20:38:10;2.20;;;1.10;;
950;SDS011;462;48.758;9.256;2022-09-09T20:46:13;2.17;;;1.43;;
950;SDS011;462;48.758;9.256;2022-09-09T20:54:19;4.10;;;1.63;;
950;SDS011;462;48.758;9.256;2022-09-09T21:02:23;3.93;;;2.00;;
950;SDS011;462;48.758;9.256;2022-09-09T21:10:27;3.13;;;1.80;;
950;SDS011;462;48.758;9.256;2022-09-09T21:18:31;2.10;;;1.50;;
950;SDS011;462;48.758;9.256;2022-09-09T21:26:35;3.20;;;1.70;;
950;SDS011;462;48.758;9.256;2022-09-09T21:34:39;2.70;;;1.63;;
950;SDS011;462;48.758;9.256;2022-09-09T21:42:43;3.23;;;1.43;;
950;SDS011;462;48.758;9.256;2022-09-09T21:50:46;2.70;;;1.30;;
950;SDS011;462;48.758;9.256;2022-09-09T21:58:54;5.53;;;1.60;;
950;SDS011;462;48.758;9.256;2022-09-09T22:06:57;2.70;;;1.80;;
950;SDS011;462;48.758;9.256;2022-09-09T22:15:01;3.37;;;1.50;;
950;SDS011;462;48.758;9.256;2022-09-09T22:23:04;2.73;;;1.57;;
950;SDS011;462;48.758;9.256;2022-09-09T22:31:07;5.10;;;1.60;;
950;SDS011;462;48.758;9.256;2022-09-09T22:39:10;2.23;;;1.50;;
950;SDS011;462;48.758;9.256;2022-09-09T22:47:14;2.23;;;2.03;;
950;SDS011;462;48.758;9.256;2022-09-09T22:55:16;1.57;;;1.20;;
950;SDS011;462;48.758;9.256;2022-09-09T23:03:20;3.60;;;1.40;;
950;SDS011;462;48.758;9.256;2022-09-09T23:11:22;1.40;;;0.90;;
950;SDS011;462;48.758;9.256;2022-09-09T23:19:28;2.97;;;1.50;;
950;SDS011;462;48.758;9.256;2022-09-09T23:27:31;2.97;;;1.23;;
950;SDS011;462;48.758;9.256;2022-09-09T23:35:35;2.50;;;1.60;;
950;SDS011;462;48.758;9.256;2022-09-09T23:43:37;2.00;;;1.60;;
950;SDS011;462;48.758;9.256;2022-09-09T23:51:41;2.43;;;1.40;;
950;SDS011;462;48.758;9.256;2022-09-09T23:59:44;6.97;;;1.57;;
